Aviation Digital Data Service (ADDS)

Output produced by TAFs form (0024 UTC 27 May 2017)
found at http://www.aviationweather.gov/adds/tafs/
 
METAR text: ZSPD 270000Z 13003MPS 110V170 CAVOK 22/16 Q1013 NOSIG
Conditions at: ZSPD (SHANGHAI/PUDONG , CN) observed 0000 UTC 27 May 2017
Temperature: 22.0°C (72°F)
Dewpoint: 16.0°C (61°F) [RH = 69%]
Pressure (altimeter): 29.91 inches Hg (1013.0 mb)
Winds: from the SE (130 degrees) at 7 MPH (6 knots; 3.1 m/s)
Visibility: 6 or more miles (10+ km)
Ceiling: ceiling and visibility are OK
Clouds: unknown
Weather: no significant weather observed at this time

Forecast for: ZSPD (SHANGHAI/PUDONG , CN)
Text: TAF ZSPD 262112Z 2700/2724 16004MPS 5000 BR SCT020 TX29/2706Z TN19/2721Z
Forecast period: 0000 UTC 27 May 2017 to 0000 UTC 28 May 2017
Forecast type: FROM: standard forecast or significant change
Winds: from the SSE (160 degrees) at 9 MPH (8 knots; 4.2 m/s)
Visibility: 3 miles (5 km)
Clouds: scattered clouds at 2000 feet AGL
Weather: BR  (mist)